Airfield :
LOGIN :

Register | Disclaimer

   EN    FR    IT 

 










Legend :    VFR   Marginal VFR   IFR   Intensive IFR   Very Intensive IFR
Visi :
Ceiling :
>= 8 km
>= 3000ft
5 to 8 km
1000 to 3000 ft
1500m to 5 km
500 to 1000 ft
800 to 1500m
200 to 500 ft
< 800m
< 200 ft
Symbols :   Thunderstorms  Fog  Heavy snow  Heavy precipitations  Wind > 20 kt
SIGMETs :     Misc.  Thunderstorms  Icing  Turbulence  Mountain Waves  Volcanic Ashes






- Airport Elevation : 266 ft
- IATA code : NCL


EGNT - Newcastle

CURRENT METAR :
  • 210650Z 16004KT 120V190 9999 -RA SCT008 13/11 Q0993

EXPIRED METARs :
  • 210620Z 11003KT 9999 -RA BKN009 12/11 Q0993
  • 210550Z VRB02KT 9999 -RA BKN009 12/11 Q0993
  • 210520Z VRB03KT 9999 FEW025 12/11 Q0993
  • 210450Z 16005KT 120V210 9999 FEW020 12/11 Q0993
  • 210420Z AUTO VRB03KT 9999 SCT007/// 12/11 Q0993

TAF TAF EGNT
Valid from the 21 at 06:00 until the 22 at 06:00 UTC


210500Z 2106/2206 17009KT 9999 SCT030
TEMPO 2106/2118 7000 RA
PROB30
TEMPO 2106/2116 4000 +RA BKN009
BECMG 2115/2118 26010KT
TEMPO 2121/2206 8000 -RA BKN012
ATIS : +44 191 214 3400



MET'MAP, your aeronautical weather chart ! - Copyright ORBIFLY December 2007 - Disclaimer

ORBIFLY MET'MAP TEAM :

Programming & Development : Alexandra Zaïnal
Concept & original design : Baudouin d'Aumeries
Assistance for programming : Marc-Olivier Méhu
Technical & hardware support : Manuel Goepfert

Contact : metmap@orbifly.com




SOURCES & CREDITS :

   NOAA